Time;durP1;ratioP1;P1;durP2;ratioP2;P2;SDS_P1;SDS_P2;PMS_P1;PMS_P2;Temp;Humidity;BMP_temperature;BMP_pressure;BME280_temperature;BME280_humidity;BME280_pressure;Samples;Min_cycle;Max_cycle;Signal;HPM_P1;HPM_P2
2023/01/25 00:05:04;;;;;;;;;;;17.80;44.20;;;;;;5064134;22;20363;-72
2023/01/25 00:07:30;;;;;;;;;;;17.70;44.60;;;;;;5071305;28;20385;-73
2023/01/25 00:09:55;;;;;;;;;;;17.70;44.10;;;;;;5073635;28;19916;-73
2023/01/25 00:12:21;;;;;;;;;;;17.70;43.80;;;;;;5071194;28;19917;-73
2023/01/25 00:14:46;;;;;;;;;;;17.70;44.00;;;;;;5055757;28;20456;-73
2023/01/25 00:17:12;;;;;;;;;;;17.60;43.70;;;;;;5074302;28;19919;-73
2023/01/25 00:19:37;;;;;;;;;;;17.60;43.70;;;;;;5073044;28;19958;-73
2023/01/25 00:22:02;;;;;;;;;;;17.60;43.60;;;;;;5073291;28;19908;-73
2023/01/25 00:24:28;;;;;;;;;;;17.60;43.70;;;;;;5069895;28;19925;-73
2023/01/25 00:26:53;;;;;;;;;;;17.60;43.80;;;;;;5062877;28;19958;-73
2023/01/25 00:29:19;;;;;;;;;;;17.50;43.80;;;;;;5066553;28;19916;-73
2023/01/25 00:31:47;;;;;;;;;;;17.50;43.50;;;;;;5063962;28;19917;-73
2023/01/25 00:34:22;;;;;;;;;;;17.50;43.60;;;;;;5068117;28;19916;-73
2023/01/25 00:36:48;;;;;;;;;;;17.50;43.80;;;;;;5073522;28;19991;-73
2023/01/25 00:39:14;;;;;;;;;;;17.50;43.60;;;;;;5054497;28;19962;-73
2023/01/25 00:41:39;;;;;;;;;;;17.50;43.60;;;;;;5070435;28;20005;-73
2023/01/25 00:44:05;;;;;;;;;;;17.40;43.80;;;;;;5073603;28;19923;-73
2023/01/25 00:46:30;;;;;;;;;;;17.40;43.60;;;;;;5071387;28;19923;-73
2023/01/25 00:48:56;;;;;;;;;;;17.40;43.70;;;;;;5073687;28;19915;-73
2023/01/25 00:51:22;;;;;;;;;;;17.40;44.30;;;;;;5067903;28;19991;-73
2023/01/25 00:53:47;;;;;;;;;;;17.40;43.80;;;;;;5072328;28;19908;-73
2023/01/25 00:56:12;;;;;;;;;;;17.40;43.80;;;;;;5037799;28;20359;-73
2023/01/25 00:58:39;;;;;;;;;;;17.30;43.90;;;;;;5072044;28;20265;-73
2023/01/25 01:01:04;;;;;;;;;;;17.30;43.80;;;;;;5054328;28;19931;-73
2023/01/25 01:03:30;;;;;;;;;;;17.30;44.10;;;;;;5051677;28;19991;-73
2023/01/25 01:05:59;;;;;;;;;;;17.30;43.90;;;;;;5041515;28;19967;-72
2023/01/25 01:08:25;;;;;;;;;;;17.30;44.10;;;;;;5053605;28;19909;-73
2023/01/25 01:10:50;;;;;;;;;;;17.20;44.10;;;;;;5066411;28;19923;-74
2023/01/25 01:13:16;;;;;;;;;;;17.20;44.00;;;;;;5065536;28;20265;-73
2023/01/25 01:15:41;;;;;;;;;;;17.20;44.10;;;;;;5072375;28;20281;-73
2023/01/25 01:18:06;;;;;;;;;;;17.20;43.90;;;;;;5059134;28;20320;-73
2023/01/25 01:20:32;;;;;;;;;;;17.20;43.70;;;;;;5069475;28;20395;-73
2023/01/25 01:22:57;;;;;;;;;;;17.20;44.10;;;;;;5071936;28;20276;-73
2023/01/25 01:25:23;;;;;;;;;;;17.20;44.10;;;;;;5071905;28;19908;-73
2023/01/25 01:27:48;;;;;;;;;;;17.10;44.20;;;;;;5070143;28;19924;-74
2023/01/25 01:30:14;;;;;;;;;;;17.10;44.10;;;;;;5051397;28;20018;-73
2023/01/25 01:32:39;;;;;;;;;;;17.10;43.90;;;;;;5072168;28;19912;-73
2023/01/25 01:35:05;;;;;;;;;;;17.10;44.10;;;;;;5070480;28;20011;-73
2023/01/25 01:37:30;;;;;;;;;;;17.00;44.50;;;;;;5070331;28;19952;-73
2023/01/25 01:39:56;;;;;;;;;;;17.00;44.30;;;;;;5040237;28;19913;-73
2023/01/25 01:42:21;;;;;;;;;;;17.00;44.10;;;;;;5035635;28;19917;-73
2023/01/25 01:44:50;;;;;;;;;;;17.10;43.90;;;;;;5070692;28;19920;-73
2023/01/25 01:47:19;;;;;;;;;;;17.00;44.00;;;;;;5063035;28;19912;-73
2023/01/25 01:49:46;;;;;;;;;;;17.10;44.20;;;;;;5069588;28;19912;-73
2023/01/25 01:52:12;;;;;;;;;;;17.00;44.10;;;;;;5072004;28;20318;-73
2023/01/25 01:54:37;;;;;;;;;;;17.00;44.10;;;;;;5070534;28;19962;-74
2023/01/25 01:57:06;;;;;;;;;;;16.90;44.20;;;;;;5072382;28;19908;-73
2023/01/25 01:59:52;;;;;;;;;;;16.90;44.50;;;;;;5070403;28;19912;-73
2023/01/25 02:02:17;;;;;;;;;;;16.90;44.10;;;;;;5060364;28;19969;-73
2023/01/25 02:04:43;;;;;;;;;;;16.90;44.10;;;;;;5069230;28;20398;-73
2023/01/25 02:07:12;;;;;;;;;;;16.90;44.40;;;;;;5054276;28;19946;-73
2023/01/25 02:09:37;;;;;;;;;;;16.80;44.10;;;;;;5050355;28;19916;-73
2023/01/25 02:12:03;;;;;;;;;;;16.90;44.20;;;;;;5054387;28;19931;-72
2023/01/25 02:14:29;;;;;;;;;;;16.90;43.90;;;;;;5065929;28;19920;-73
2023/01/25 02:16:54;;;;;;;;;;;17.00;43.60;;;;;;5069960;28;19920;-73
2023/01/25 02:19:43;;;;;;;;;;;17.10;43.90;;;;;;5070768;28;19956;-74
2023/01/25 02:22:09;;;;;;;;;;;17.40;43.90;;;;;;5068762;28;19975;-73
2023/01/25 02:24:35;;;;;;;;;;;17.70;43.10;;;;;;5069788;28;19969;-73
2023/01/25 02:27:00;;;;;;;;;;;18.10;42.60;;;;;;5069509;28;20280;-73
2023/01/25 02:29:26;;;;;;;;;;;18.40;42.00;;;;;;5069411;28;20433;-74
2023/01/25 02:31:57;;;;;;;;;;;18.90;41.20;;;;;;5070623;28;20007;-73
2023/01/25 02:34:23;;;;;;;;;;;19.40;40.10;;;;;;5053569;28;19920;-73
2023/01/25 02:36:48;;;;;;;;;;;19.70;39.30;;;;;;5069770;28;20530;-73
2023/01/25 02:39:15;;;;;;;;;;;19.60;39.50;;;;;;5071707;28;20376;-73
2023/01/25 02:41:41;;;;;;;;;;;19.50;39.70;;;;;;5052414;28;20015;-74
2023/01/25 02:44:07;;;;;;;;;;;19.30;39.80;;;;;;5071476;28;20027;-73
2023/01/25 02:46:33;;;;;;;;;;;19.30;39.80;;;;;;5070901;28;19978;-73
2023/01/25 02:48:58;;;;;;;;;;;19.50;39.50;;;;;;5069969;28;19934;-73
2023/01/25 02:51:25;;;;;;;;;;;19.90;38.90;;;;;;5057030;28;19999;-73
2023/01/25 02:53:50;;;;;;;;;;;20.20;38.50;;;;;;5062872;28;19917;-73
2023/01/25 02:56:16;;;;;;;;;;;20.50;38.00;;;;;;5068695;28;19944;-73
2023/01/25 02:58:41;;;;;;;;;;;20.60;37.60;;;;;;5063979;28;19920;-74
2023/01/25 03:01:07;;;;;;;;;;;20.70;37.40;;;;;;5049140;28;19917;-74
2023/01/25 03:03:32;;;;;;;;;;;20.90;37.30;;;;;;5070236;28;19920;-74
2023/01/25 03:05:58;;;;;;;;;;;20.80;37.20;;;;;;5050705;28;19928;-73
2023/01/25 03:08:23;;;;;;;;;;;20.80;37.20;;;;;;5071059;28;19909;-73
2023/01/25 03:10:48;;;;;;;;;;;20.80;37.20;;;;;;5072753;28;19912;-73
2023/01/25 03:13:14;;;;;;;;;;;20.70;37.20;;;;;;5065545;28;19913;-73
2023/01/25 03:15:39;;;;;;;;;;;20.70;37.40;;;;;;5069071;28;19917;-73
2023/01/25 03:18:05;;;;;;;;;;;20.60;37.60;;;;;;5057869;28;19909;-73
2023/01/25 03:20:30;;;;;;;;;;;20.40;37.70;;;;;;5070427;28;19966;-73
2023/01/25 03:22:55;;;;;;;;;;;20.30;38.00;;;;;;5075322;28;19913;-73
2023/01/25 03:25:21;;;;;;;;;;;20.00;38.30;;;;;;5069409;28;19912;-73
2023/01/25 03:27:47;;;;;;;;;;;19.90;38.70;;;;;;5070582;28;19913;-73
2023/01/25 03:30:12;;;;;;;;;;;19.70;38.80;;;;;;5072905;28;19924;-73
2023/01/25 03:32:38;;;;;;;;;;;19.60;39.20;;;;;;5074779;28;19912;-73
2023/01/25 03:35:03;;;;;;;;;;;19.40;39.50;;;;;;5074068;28;19919;-73
2023/01/25 03:37:30;;;;;;;;;;;19.30;39.80;;;;;;5074575;28;19969;-73
2023/01/25 03:39:56;;;;;;;;;;;19.10;40.00;;;;;;5056236;28;19920;-74
2023/01/25 03:42:21;;;;;;;;;;;19.00;40.10;;;;;;5072669;28;19919;-73
2023/01/25 03:44:46;;;;;;;;;;;18.90;40.30;;;;;;5073739;28;19912;-73
2023/01/25 03:47:12;;;;;;;;;;;18.80;40.40;;;;;;5074307;28;19928;-73
2023/01/25 03:49:37;;;;;;;;;;;18.80;40.50;;;;;;5072085;28;19935;-73
2023/01/25 03:52:03;;;;;;;;;;;18.70;40.50;;;;;;5064708;28;19920;-73
2023/01/25 03:54:28;;;;;;;;;;;18.70;40.50;;;;;;5053684;28;19912;-73
2023/01/25 03:56:54;;;;;;;;;;;18.60;40.70;;;;;;5064880;28;19958;-74
2023/01/25 03:59:19;;;;;;;;;;;18.60;40.60;;;;;;5061344;28;19916;-73
2023/01/25 04:01:45;;;;;;;;;;;18.70;40.60;;;;;;5066698;28;19995;-73
2023/01/25 04:04:10;;;;;;;;;;;18.70;40.30;;;;;;5055374;28;19966;-73
2023/01/25 04:06:35;;;;;;;;;;;18.80;40.30;;;;;;5073912;28;19920;-72
2023/01/25 04:09:01;;;;;;;;;;;18.90;40.00;;;;;;5072894;28;19917;-73
2023/01/25 04:11:26;;;;;;;;;;;19.10;39.90;;;;;;5052369;28;19913;-73
2023/01/25 04:13:52;;;;;;;;;;;19.20;39.30;;;;;;5065551;28;19916;-73
2023/01/25 04:16:17;;;;;;;;;;;19.30;39.30;;;;;;5074184;28;20390;-73
2023/01/25 04:18:43;;;;;;;;;;;19.40;39.00;;;;;;5071044;28;20381;-73
2023/01/25 04:21:08;;;;;;;;;;;19.60;38.80;;;;;;5072367;28;19908;-73
2023/01/25 04:23:34;;;;;;;;;;;19.70;38.60;;;;;;5073381;28;19962;-73
2023/01/25 04:26:04;;;;;;;;;;;19.70;38.30;;;;;;5072560;28;19956;-74
2023/01/25 04:28:30;;;;;;;;;;;19.80;38.30;;;;;;5080050;28;19960;-73
2023/01/25 04:30:55;;;;;;;;;;;19.90;38.00;;;;;;5071822;28;19916;-73
2023/01/25 04:33:21;;;;;;;;;;;19.90;37.90;;;;;;5074634;28;19919;-73
2023/01/25 04:35:46;;;;;;;;;;;19.90;38.00;;;;;;5067732;28;20006;-73
2023/01/25 04:38:12;;;;;;;;;;;19.80;38.10;;;;;;5064186;28;19913;-73
2023/01/25 04:40:37;;;;;;;;;;;19.90;38.00;;;;;;5055896;28;19912;-73
2023/01/25 04:43:02;;;;;;;;;;;19.80;38.00;;;;;;5072532;28;19942;-73
2023/01/25 04:45:28;;;;;;;;;;;19.80;38.10;;;;;;5072231;28;19960;-73
2023/01/25 04:47:57;;;;;;;;;;;19.70;38.20;;;;;;5071652;28;19913;-73
2023/01/25 04:50:23;;;;;;;;;;;19.70;38.20;;;;;;5071251;28;20007;-73
2023/01/25 04:52:48;;;;;;;;;;;19.60;38.40;;;;;;5071989;28;19948;-73
2023/01/25 04:55:14;;;;;;;;;;;19.50;38.40;;;;;;5072088;28;19936;-73
2023/01/25 04:57:39;;;;;;;;;;;19.50;38.30;;;;;;5072813;28;19916;-73
2023/01/25 05:00:05;;;;;;;;;;;19.50;38.40;;;;;;5072800;28;20391;-73
2023/01/25 05:02:31;;;;;;;;;;;19.40;38.40;;;;;;5054387;28;19966;-74
2023/01/25 05:04:56;;;;;;;;;;;19.40;38.60;;;;;;5070252;28;19920;-73
2023/01/25 05:07:21;;;;;;;;;;;19.50;38.50;;;;;;5073523;28;19919;-73
2023/01/25 05:09:47;;;;;;;;;;;19.40;38.50;;;;;;5067833;28;20015;-73
2023/01/25 05:12:12;;;;;;;;;;;19.40;38.40;;;;;;5070500;28;20065;-73
2023/01/25 05:14:38;;;;;;;;;;;19.40;38.50;;;;;;5053212;28;19916;-73
2023/01/25 05:17:04;;;;;;;;;;;19.40;38.60;;;;;;5055368;28;19917;-73
2023/01/25 05:19:30;;;;;;;;;;;19.50;38.60;;;;;;5071559;28;19999;-74
2023/01/25 05:21:58;;;;;;;;;;;19.50;38.40;;;;;;5061670;28;20010;-73
2023/01/25 05:24:24;;;;;;;;;;;19.50;38.30;;;;;;5058571;28;20008;-73
2023/01/25 05:27:05;;;;;;;;;;;19.50;38.30;;;;;;5062612;28;20003;-73
2023/01/25 05:29:37;;;;;;;;;;;19.50;38.30;;;;;;5063126;28;19924;-73
2023/01/25 05:32:03;;;;;;;;;;;19.50;38.30;;;;;;5061841;28;19948;-73
2023/01/25 05:34:28;;;;;;;;;;;19.50;38.30;;;;;;5043155;28;19975;-73
2023/01/25 05:36:54;;;;;;;;;;;19.50;38.20;;;;;;5069220;28;19916;-73
2023/01/25 05:39:19;;;;;;;;;;;19.50;38.10;;;;;;5066061;28;20196;-73
2023/01/25 05:41:45;;;;;;;;;;;19.50;38.00;;;;;;5057670;28;20365;-73
2023/01/25 05:44:10;;;;;;;;;;;19.50;38.10;;;;;;5064475;28;19921;-73
2023/01/25 05:46:35;;;;;;;;;;;19.50;38.20;;;;;;5065698;28;20003;-73
2023/01/25 05:49:01;;;;;;;;;;;19.50;38.30;;;;;;5057099;28;19919;-72
2023/01/25 05:51:26;;;;;;;;;;;19.50;38.10;;;;;;5052039;28;19912;-73
2023/01/25 05:53:55;;;;;;;;;;;19.50;38.10;;;;;;5051819;28;19922;-73
2023/01/25 05:56:20;;;;;;;;;;;19.50;37.90;;;;;;5061332;28;19920;-73
2023/01/25 05:58:46;;;;;;;;;;;19.50;37.90;;;;;;5067354;28;20035;-73
2023/01/25 06:01:11;;;;;;;;;;;19.60;37.90;;;;;;5072271;28;19909;-73
2023/01/25 06:03:37;;;;;;;;;;;19.60;37.80;;;;;;5069358;28;19920;-73
2023/01/25 06:06:02;;;;;;;;;;;19.60;37.90;;;;;;5049744;28;19929;-73
2023/01/25 06:08:28;;;;;;;;;;;19.60;37.80;;;;;;5051241;28;19909;-73
2023/01/25 06:10:53;;;;;;;;;;;19.60;37.70;;;;;;5063925;28;20271;-73
2023/01/25 06:13:21;;;;;;;;;;;19.50;37.70;;;;;;5064197;28;19909;-73
2023/01/25 06:15:55;;;;;;;;;;;19.60;37.70;;;;;;5068427;28;19924;-73
2023/01/25 06:18:25;;;;;;;;;;;19.50;37.70;;;;;;5068487;28;19908;-73
2023/01/25 06:20:51;;;;;;;;;;;19.50;37.80;;;;;;5081909;28;20014;-73
2023/01/25 06:23:16;;;;;;;;;;;19.50;37.90;;;;;;5046361;28;20007;-73
2023/01/25 06:25:42;;;;;;;;;;;19.60;37.70;;;;;;5047361;28;19917;-73
2023/01/25 06:28:07;;;;;;;;;;;19.60;37.60;;;;;;5059801;28;19916;-73
2023/01/25 06:30:33;;;;;;;;;;;19.60;37.70;;;;;;5070149;28;19958;-73
2023/01/25 06:32:58;;;;;;;;;;;19.70;37.60;;;;;;5071628;28;19932;-74
2023/01/25 06:35:24;;;;;;;;;;;19.60;37.60;;;;;;5069212;28;19931;-73
2023/01/25 06:37:49;;;;;;;;;;;19.60;37.70;;;;;;5070407;28;20364;-73
2023/01/25 06:40:15;;;;;;;;;;;19.60;37.60;;;;;;5073371;28;19912;-73
2023/01/25 06:42:40;;;;;;;;;;;19.60;37.60;;;;;;5069400;28;19960;-73
2023/01/25 06:45:06;;;;;;;;;;;19.50;37.70;;;;;;5074535;28;20296;-73
2023/01/25 06:47:31;;;;;;;;;;;19.60;37.60;;;;;;5074990;28;19914;-73
2023/01/25 06:49:57;;;;;;;;;;;19.50;37.60;;;;;;5055876;28;19947;-73
2023/01/25 06:52:22;;;;;;;;;;;19.50;37.60;;;;;;5068878;28;19916;-73
2023/01/25 06:54:48;;;;;;;;;;;19.50;37.90;;;;;;5068546;28;19912;-73
2023/01/25 06:57:13;;;;;;;;;;;19.50;37.90;;;;;;5070542;28;19912;-73
2023/01/25 06:59:38;;;;;;;;;;;19.50;37.80;;;;;;5071257;28;19912;-73
2023/01/25 07:02:04;;;;;;;;;;;19.50;37.70;;;;;;5073209;28;19951;-73
2023/01/25 07:04:30;;;;;;;;;;;19.40;38.00;;;;;;5070585;28;19925;-73
2023/01/25 07:06:55;;;;;;;;;;;19.40;38.10;;;;;;5068181;28;19924;-73
2023/01/25 07:09:23;;;;;;;;;;;19.40;38.00;;;;;;5054133;28;19912;-73
2023/01/25 07:11:49;;;;;;;;;;;19.40;38.00;;;;;;5072498;28;19919;-73
2023/01/25 07:14:14;;;;;;;;;;;19.50;37.90;;;;;;5069161;28;20439;-73
2023/01/25 07:16:40;;;;;;;;;;;19.50;38.00;;;;;;5061823;28;20007;-73
2023/01/25 07:19:05;;;;;;;;;;;19.50;38.00;;;;;;5047956;28;20445;-73
2023/01/25 07:21:31;;;;;;;;;;;19.50;38.10;;;;;;5064102;28;20350;-73
2023/01/25 07:24:00;;;;;;;;;;;19.60;38.10;;;;;;5060966;28;19920;-72
2023/01/25 07:26:26;;;;;;;;;;;19.60;38.10;;;;;;5054978;28;19913;-73
2023/01/25 07:28:51;;;;;;;;;;;19.60;38.10;;;;;;5066556;28;19920;-72
2023/01/25 07:31:17;;;;;;;;;;;19.50;38.00;;;;;;5069412;28;19924;-72
2023/01/25 07:33:43;;;;;;;;;;;19.50;38.10;;;;;;5068074;28;19916;-71
2023/01/25 07:36:09;;;;;;;;;;;19.60;38.20;;;;;;5061650;28;20358;-73
2023/01/25 07:38:35;;;;;;;;;;;19.50;38.10;;;;;;5054081;28;19909;-73
2023/01/25 07:41:00;;;;;;;;;;;19.50;38.10;;;;;;5067238;28;20415;-72
2023/01/25 07:43:26;;;;;;;;;;;19.50;38.10;;;;;;5053243;28;19968;-73
2023/01/25 07:45:51;;;;;;;;;;;19.50;38.20;;;;;;5065311;28;20001;-73
2023/01/25 07:48:17;;;;;;;;;;;19.60;38.30;;;;;;5074474;28;20344;-73
2023/01/25 07:50:48;;;;;;;;;;;19.50;38.20;;;;;;5064786;28;20431;-72
2023/01/25 07:53:16;;;;;;;;;;;19.50;38.30;;;;;;5076908;28;19920;-73
2023/01/25 07:55:42;;;;;;;;;;;19.50;39.00;;;;;;5072185;28;19919;-73
2023/01/25 07:58:09;;;;;;;;;;;19.80;38.20;;;;;;5070374;28;19917;-73
2023/01/25 08:00:34;;;;;;;;;;;20.40;37.40;;;;;;5075496;28;19913;-73
2023/01/25 08:03:00;;;;;;;;;;;21.00;36.50;;;;;;5068069;28;19924;-73
2023/01/25 08:05:25;;;;;;;;;;;21.60;35.80;;;;;;5071050;28;19916;-72
2023/01/25 08:07:51;;;;;;;;;;;22.00;35.10;;;;;;5070238;28;19920;-72
2023/01/25 08:10:16;;;;;;;;;;;22.40;35.00;;;;;;5061916;28;20007;-74
2023/01/25 08:12:45;;;;;;;;;;;22.60;34.70;;;;;;5062715;28;19952;-74
2023/01/25 08:15:11;;;;;;;;;;;22.80;34.60;;;;;;5068073;28;20017;-73
2023/01/25 08:17:37;;;;;;;;;;;22.90;34.50;;;;;;5070127;28;19974;-73
2023/01/25 08:20:03;;;;;;;;;;;23.00;34.40;;;;;;5070328;28;20354;-73
2023/01/25 08:22:28;;;;;;;;;;;23.00;34.60;;;;;;5067165;28;20067;-74
2023/01/25 08:24:55;;;;;;;;;;;23.00;34.80;;;;;;5063206;28;20275;-73
2023/01/25 08:27:21;;;;;;;;;;;23.00;34.70;;;;;;5063670;28;19967;-73
2023/01/25 08:29:46;;;;;;;;;;;23.10;34.90;;;;;;5066506;28;20442;-73
2023/01/25 08:32:12;;;;;;;;;;;23.20;34.90;;;;;;5071566;28;19919;-74
2023/01/25 08:34:38;;;;;;;;;;;23.30;34.70;;;;;;5068651;28;22014;-73
2023/01/25 08:37:04;;;;;;;;;;;23.20;34.80;;;;;;5060706;28;19920;-73
2023/01/25 08:39:29;;;;;;;;;;;23.30;34.70;;;;;;5063508;28;19920;-72
2023/01/25 08:41:54;;;;;;;;;;;23.40;34.70;;;;;;5063137;28;19912;-73
2023/01/25 08:44:22;;;;;;;;;;;23.50;34.50;;;;;;5068574;28;19920;-73
2023/01/25 08:46:48;;;;;;;;;;;23.40;34.70;;;;;;5062222;28;19970;-73
2023/01/25 08:49:14;;;;;;;;;;;23.50;34.50;;;;;;5068791;28;20346;-74
2023/01/25 08:51:39;;;;;;;;;;;23.50;34.50;;;;;;5060463;28;19916;-74
2023/01/25 08:54:05;;;;;;;;;;;23.50;34.70;;;;;;5072471;28;19912;-72
2023/01/25 08:56:31;;;;;;;;;;;23.60;34.70;;;;;;5069359;28;19928;-74
2023/01/25 08:58:56;;;;;;;;;;;23.60;34.60;;;;;;5068694;28;20003;-73
2023/01/25 09:01:21;;;;;;;;;;;23.60;34.70;;;;;;5069559;28;19961;-74
2023/01/25 09:03:48;;;;;;;;;;;23.60;34.70;;;;;;5069263;28;19920;-73
2023/01/25 09:06:13;;;;;;;;;;;23.60;34.80;;;;;;5068823;28;19927;-73
2023/01/25 09:08:39;;;;;;;;;;;23.60;34.70;;;;;;5069033;28;19916;-72
2023/01/25 09:11:05;;;;;;;;;;;23.70;34.60;;;;;;5062984;28;19927;-73
2023/01/25 09:13:30;;;;;;;;;;;23.70;34.60;;;;;;5055953;28;19923;-73
2023/01/25 09:16:02;;;;;;;;;;;23.70;34.60;;;;;;5070786;28;20003;-73
2023/01/25 09:18:28;;;;;;;;;;;23.70;34.70;;;;;;5071490;28;19917;-73
2023/01/25 09:20:54;;;;;;;;;;;23.70;34.70;;;;;;5068042;28;20327;-74
2023/01/25 09:23:21;;;;;;;;;;;23.70;34.80;;;;;;5067442;28;19923;-74
2023/01/25 09:25:47;;;;;;;;;;;23.70;34.80;;;;;;5072505;28;19955;-73
2023/01/25 09:28:12;;;;;;;;;;;23.70;34.70;;;;;;5068690;28;19947;-75
2023/01/25 09:30:38;;;;;;;;;;;23.70;34.80;;;;;;5084580;28;19916;-74
2023/01/25 09:33:03;;;;;;;;;;;23.70;34.80;;;;;;5062855;28;19913;-74
2023/01/25 09:35:29;;;;;;;;;;;23.70;34.80;;;;;;5066557;28;20402;-75
2023/01/25 09:37:55;;;;;;;;;;;23.70;34.90;;;;;;5070184;28;20293;-75
2023/01/25 09:40:21;;;;;;;;;;;23.70;34.90;;;;;;5068334;28;19918;-75
2023/01/25 09:42:55;;;;;;;;;;;23.80;34.80;;;;;;5049322;28;20041;-75
2023/01/25 09:45:21;;;;;;;;;;;23.70;34.80;;;;;;5069307;28;20029;-74
2023/01/25 09:47:48;;;;;;;;;;;23.70;34.90;;;;;;5061968;28;20005;-74
2023/01/25 09:50:16;;;;;;;;;;;23.70;34.80;;;;;;5065663;28;19916;-73
2023/01/25 09:52:52;;;;;;;;;;;23.70;34.90;;;;;;5069760;28;20296;-74
2023/01/25 09:55:18;;;;;;;;;;;23.70;35.10;;;;;;5071096;28;19924;-74
2023/01/25 09:57:44;;;;;;;;;;;23.70;35.00;;;;;;5050533;28;20368;-74
2023/01/25 10:00:30;;;;;;;;;;;23.70;35.10;;;;;;5068871;28;19964;-74
2023/01/25 10:02:57;;;;;;;;;;;23.70;35.10;;;;;;5067756;28;20019;-74
2023/01/25 10:05:23;;;;;;;;;;;23.80;35.10;;;;;;5065247;28;19920;-75
2023/01/25 10:08:00;;;;;;;;;;;23.80;35.20;;;;;;5064969;28;19924;-74
2023/01/25 10:10:31;;;;;;;;;;;23.70;35.00;;;;;;5066227;28;19913;-72
2023/01/25 10:12:56;;;;;;;;;;;23.70;35.10;;;;;;5066074;28;19962;-74
2023/01/25 10:15:23;;;;;;;;;;;23.80;35.10;;;;;;5063141;28;20003;-74
2023/01/25 10:17:57;;;;;;;;;;;23.80;35.10;;;;;;5065653;28;20046;-73
2023/01/25 10:20:25;;;;;;;;;;;23.80;34.90;;;;;;5076811;28;20217;-71
2023/01/25 10:23:09;;;;;;;;;;;23.80;35.00;;;;;;5068387;28;19923;-71
2023/01/25 10:25:37;;;;;;;;;;;23.90;34.70;;;;;;5076376;28;21244;-72
2023/01/25 10:28:06;;;;;;;;;;;23.80;34.70;;;;;;5066486;28;19931;-72
2023/01/25 10:30:52;;;;;;;;;;;23.80;35.10;;;;;;5064755;28;19912;-71
2023/01/25 10:33:18;;;;;;;;;;;23.80;34.80;;;;;;5045927;28;19917;-71
2023/01/25 10:35:45;;;;;;;;;;;23.90;34.90;;;;;;5062189;28;19921;-74
2023/01/25 10:38:16;;;;;;;;;;;23.80;34.70;;;;;;5067821;28;19920;-74
2023/01/25 10:40:45;;;;;;;;;;;23.80;34.80;;;;;;5067344;28;19916;-74
2023/01/25 10:43:13;;;;;;;;;;;23.90;34.80;;;;;;5065826;28;19924;-72
2023/01/25 10:45:38;;;;;;;;;;;23.80;34.90;;;;;;5058130;28;19912;-72
2023/01/25 10:48:05;;;;;;;;;;;23.80;34.90;;;;;;5065426;28;19926;-71
2023/01/25 10:50:41;;;;;;;;;;;23.80;34.90;;;;;;5056996;28;19917;-71
2023/01/25 10:53:15;;;;;;;;;;;23.80;34.90;;;;;;5072047;28;19996;-72
2023/01/25 10:55:43;;;;;;;;;;;23.80;35.10;;;;;;5069336;28;19909;-72
2023/01/25 10:58:27;;;;;;;;;;;23.80;35.00;;;;;;5066435;28;19912;-72
2023/01/25 11:00:54;;;;;;;;;;;23.80;34.90;;;;;;5054048;28;19920;-72
2023/01/25 11:03:19;;;;;;;;;;;23.90;35.10;;;;;;5069270;28;19960;-72
2023/01/25 11:05:51;;;;;;;;;;;23.80;35.00;;;;;;5068918;28;19974;-73
2023/01/25 11:08:24;;;;;;;;;;;23.80;35.10;;;;;;5070925;28;19919;-72
2023/01/25 11:10:49;;;;;;;;;;;23.80;35.10;;;;;;5069409;28;19924;-73
2023/01/25 11:13:15;;;;;;;;;;;23.80;35.20;;;;;;5060206;28;20280;-73
2023/01/25 11:15:43;;;;;;;;;;;23.80;35.20;;;;;;5071102;28;19912;-73
2023/01/25 11:18:18;;;;;;;;;;;23.80;35.20;;;;;;5069362;28;19919;-73
2023/01/25 11:20:44;;;;;;;;;;;23.90;35.40;;;;;;5067776;28;19934;-73
2023/01/25 11:23:23;;;;;;;;;;;23.90;35.30;;;;;;5049277;28;19927;-73
2023/01/25 11:25:49;;;;;;;;;;;23.90;35.40;;;;;;5064243;28;19916;-73
2023/01/25 11:28:21;;;;;;;;;;;23.90;35.40;;;;;;5067853;28;19962;-74
2023/01/25 11:30:47;;;;;;;;;;;23.80;35.40;;;;;;5070649;28;20362;-73
2023/01/25 11:33:13;;;;;;;;;;;23.90;35.40;;;;;;5052855;28;20011;-71
2023/01/25 11:35:46;;;;;;;;;;;23.90;35.50;;;;;;5067271;28;19912;-71
2023/01/25 11:38:13;;;;;;;;;;;23.90;35.40;;;;;;5068952;28;19917;-72
2023/01/25 11:40:56;;;;;;;;;;;23.90;35.40;;;;;;5068605;28;19917;-73
2023/01/25 11:43:45;;;;;;;;;;;23.90;35.40;;;;;;5071704;28;19921;-73
2023/01/25 11:46:32;;;;;;;;;;;23.90;35.40;;;;;;5070434;28;19923;-73
2023/01/25 11:49:07;;;;;;;;;;;23.90;35.50;;;;;;5056913;28;19920;-73
2023/01/25 11:51:35;;;;;;;;;;;23.90;35.40;;;;;;5062299;28;19920;-73
2023/01/25 11:54:03;;;;;;;;;;;23.90;35.40;;;;;;5068811;28;19913;-72
2023/01/25 11:56:49;;;;;;;;;;;23.90;35.50;;;;;;5069384;28;19968;-73
2023/01/25 11:59:15;;;;;;;;;;;24.00;35.40;;;;;;5071765;28;20302;-73
2023/01/25 12:01:40;;;;;;;;;;;24.00;35.60;;;;;;5068818;28;19912;-73
2023/01/25 12:04:05;;;;;;;;;;;23.90;35.40;;;;;;5065075;28;19921;-73
2023/01/25 12:06:34;;;;;;;;;;;23.90;35.40;;;;;;5072282;28;19931;-74
2023/01/25 12:09:05;;;;;;;;;;;24.00;35.40;;;;;;5070135;28;19924;-73
2023/01/25 12:11:41;;;;;;;;;;;23.90;35.60;;;;;;5071329;28;20011;-73
2023/01/25 12:14:13;;;;;;;;;;;23.90;35.60;;;;;;5072858;28;19967;-74
2023/01/25 12:16:57;;;;;;;;;;;23.90;35.70;;;;;;5071040;28;19913;-73
2023/01/25 12:19:38;;;;;;;;;;;24.00;35.80;;;;;;5072365;28;19917;-74
2023/01/25 12:22:14;;;;;;;;;;;23.90;35.70;;;;;;5071008;28;19923;-73
2023/01/25 12:24:43;;;;;;;;;;;23.90;35.70;;;;;;5061431;28;19967;-73
2023/01/25 12:27:27;;;;;;;;;;;23.90;35.70;;;;;;5066536;28;19916;-73
2023/01/25 12:29:55;;;;;;;;;;;23.90;35.80;;;;;;5071855;28;19989;-73
2023/01/25 12:32:40;;;;;;;;;;;23.80;35.70;;;;;;5065964;28;20272;-71
2023/01/25 12:35:16;;;;;;;;;;;23.80;35.80;;;;;;5069233;28;19912;-71
2023/01/25 12:37:41;;;;;;;;;;;23.80;35.90;;;;;;5052425;28;20318;-72
2023/01/25 12:40:08;;;;;;;;;;;23.80;35.90;;;;;;5068434;28;19912;-72
2023/01/25 12:42:35;;;;;;;;;;;23.80;36.00;;;;;;5060913;28;19920;-73
2023/01/25 12:45:05;;;;;;;;;;;23.80;35.90;;;;;;5065049;28;19923;-72
2023/01/25 12:47:31;;;;;;;;;;;23.80;35.90;;;;;;5048823;28;19925;-73
2023/01/25 12:50:01;;;;;;;;;;;23.90;36.00;;;;;;5062379;28;19923;-72
2023/01/25 12:52:28;;;;;;;;;;;23.90;35.90;;;;;;5063921;28;20381;-73
2023/01/25 12:54:54;;;;;;;;;;;23.90;35.90;;;;;;5066421;28;20323;-72
2023/01/25 12:57:22;;;;;;;;;;;24.00;35.80;;;;;;5070425;28;19927;-73
2023/01/25 12:59:47;;;;;;;;;;;24.00;35.80;;;;;;5070951;28;19912;-73
2023/01/25 13:02:31;;;;;;;;;;;24.00;35.80;;;;;;5071927;28;19916;-73
2023/01/25 13:04:58;;;;;;;;;;;24.00;35.80;;;;;;5072218;28;19962;-71
2023/01/25 13:07:28;;;;;;;;;;;24.00;35.80;;;;;;5070530;28;19920;-72
2023/01/25 13:09:58;;;;;;;;;;;24.00;35.90;;;;;;5070107;28;19970;-73
2023/01/25 13:12:23;;;;;;;;;;;24.00;35.80;;;;;;5053208;28;20026;-73
2023/01/25 13:14:49;;;;;;;;;;;24.00;35.80;;;;;;5054211;28;19924;-74
2023/01/25 13:17:19;;;;;;;;;;;24.00;35.70;;;;;;5051956;28;20380;-72
2023/01/25 13:19:44;;;;;;;;;;;24.10;35.80;;;;;;5062182;28;19912;-73
2023/01/25 13:22:10;;;;;;;;;;;24.00;35.90;;;;;;5071519;28;20417;-73
2023/01/25 13:24:55;;;;;;;;;;;24.00;35.60;;;;;;5049057;28;20367;-73
2023/01/25 13:27:24;;;;;;;;;;;24.00;35.70;;;;;;5066406;28;19962;-71
2023/01/25 13:29:59;;;;;;;;;;;24.00;35.60;;;;;;5070230;28;19936;-71
2023/01/25 13:32:26;;;;;;;;;;;24.10;35.70;;;;;;5063970;28;20019;-71
2023/01/25 13:34:51;;;;;;;;;;;24.10;35.70;;;;;;5071124;28;19917;-71
2023/01/25 13:37:17;;;;;;;;;;;24.10;35.70;;;;;;5069626;28;19966;-73
2023/01/25 13:39:46;;;;;;;;;;;24.10;35.70;;;;;;5063657;28;19920;-72
2023/01/25 13:42:12;;;;;;;;;;;24.10;35.70;;;;;;5067443;28;19912;-73
2023/01/25 13:44:40;;;;;;;;;;;24.10;35.80;;;;;;5066295;28;19927;-71
2023/01/25 13:47:06;;;;;;;;;;;24.10;35.80;;;;;;5051484;28;19919;-73
2023/01/25 13:49:36;;;;;;;;;;;24.10;35.80;;;;;;5066810;28;20395;-73
2023/01/25 13:52:03;;;;;;;;;;;24.10;35.80;;;;;;5066146;28;19920;-73
2023/01/25 13:54:28;;;;;;;;;;;24.10;35.70;;;;;;5066953;28;19916;-73
2023/01/25 13:57:03;;;;;;;;;;;24.10;35.60;;;;;;5068689;28;20050;-73
2023/01/25 13:59:29;;;;;;;;;;;24.10;35.70;;;;;;5061388;28;19919;-73
2023/01/25 14:01:55;;;;;;;;;;;24.10;35.70;;;;;;5064330;28;19913;-73
2023/01/25 14:04:21;;;;;;;;;;;24.10;35.90;;;;;;5068039;28;19990;-74
2023/01/25 14:06:46;;;;;;;;;;;24.10;35.80;;;;;;5068713;28;20325;-73
2023/01/25 14:09:15;;;;;;;;;;;24.10;35.80;;;;;;5066067;28;19916;-74
2023/01/25 14:11:57;;;;;;;;;;;24.10;35.80;;;;;;5068329;28;19916;-73
2023/01/25 14:14:26;;;;;;;;;;;24.00;35.90;;;;;;5066964;28;19912;-74
2023/01/25 14:17:07;;;;;;;;;;;24.00;36.20;;;;;;5059950;28;19977;-74
2023/01/25 14:19:34;;;;;;;;;;;24.00;36.20;;;;;;5066889;28;19916;-72
2023/01/25 14:22:18;;;;;;;;;;;23.90;36.40;;;;;;5070654;28;19959;-72